Time;durP1;ratioP1;P1;durP2;ratioP2;P2;SDS_P1;SDS_P2;PMS_P1;PMS_P2;Temp;Humidity;BMP_temperature;BMP_pressure;BME280_temperature;BME280_humidity;BME280_pressure;Samples;Min_cycle;Max_cycle;Signal;HPM_P1;HPM_P2
2021/10/28 00:14:26;;;;;;;3.22;2.08;;;9.40;99.90;;;;;;5032744;28;20037;-82
2021/10/28 00:16:54;;;;;;;4.07;2.28;;;9.30;99.90;;;;;;5044117;28;20040;-84
2021/10/28 00:19:19;;;;;;;3.60;2.38;;;9.30;99.90;;;;;;5045183;28;20025;-86
2021/10/28 00:21:45;;;;;;;3.90;2.47;;;9.30;99.90;;;;;;5030988;28;20057;-83
2021/10/28 00:24:13;;;;;;;4.63;2.53;;;9.20;99.90;;;;;;5032240;28;20029;-92
2021/10/28 00:26:45;;;;;;;4.07;2.28;;;9.20;99.90;;;;;;5048911;28;20045;-91
2021/10/28 00:29:15;;;;;;;5.63;2.55;;;9.20;99.90;;;;;;5049379;28;20036;-92
2021/10/28 00:31:41;;;;;;;5.25;2.53;;;9.20;99.90;;;;;;5030671;28;20087;-94
2021/10/28 00:34:09;;;;;;;3.72;2.03;;;9.20;99.90;;;;;;5028063;28;20036;-92
2021/10/28 00:36:37;;;;;;;6.43;2.83;;;9.10;99.90;;;;;;5027672;28;20120;-94
2021/10/28 00:39:05;;;;;;;5.53;2.80;;;9.20;99.90;;;;;;5028530;28;20033;-94
2021/10/28 00:41:31;;;;;;;5.50;1.90;;;9.10;99.90;;;;;;5060173;28;20279;-93
2021/10/28 00:43:59;;;;;;;4.18;2.42;;;9.10;99.90;;;;;;5047982;28;20036;-92
2021/10/28 00:46:31;;;;;;;5.30;3.03;;;9.00;99.90;;;;;;5027733;28;20055;-92
2021/10/28 00:48:57;;;;;;;3.47;2.20;;;9.00;99.90;;;;;;5028542;28;20034;-93
2021/10/28 00:51:25;;;;;;;5.72;2.60;;;9.00;99.90;;;;;;5047884;28;20120;-93
2021/10/28 00:53:51;;;;;;;4.22;2.60;;;9.00;99.90;;;;;;5065819;28;20059;-94
2021/10/28 00:56:19;;;;;;;3.30;2.55;;;9.00;99.90;;;;;;5027375;28;20067;-85
2021/10/28 00:58:45;;;;;;;4.03;2.42;;;9.00;99.90;;;;;;5028116;28;20080;-85
2021/10/28 01:01:10;;;;;;;6.00;3.17;;;8.90;99.90;;;;;;5044277;28;20482;-88
2021/10/28 01:03:39;;;;;;;5.70;3.13;;;8.90;99.90;;;;;;5047598;28;20025;-91
2021/10/28 01:06:13;;;;;;;4.20;2.45;;;8.90;99.90;;;;;;5032340;28;20108;-91
2021/10/28 01:08:43;;;;;;;4.10;1.77;;;8.90;99.90;;;;;;5068247;28;20033;-92
2021/10/28 01:11:11;;;;;;;5.50;2.90;;;8.90;99.90;;;;;;5034647;28;20057;-85
2021/10/28 01:13:38;;;;;;;7.32;3.50;;;8.90;99.90;;;;;;5050714;28;20059;-85
2021/10/28 01:16:07;;;;;;;6.90;3.92;;;9.00;99.90;;;;;;5050253;28;20063;-89
2021/10/28 01:18:35;;;;;;;5.40;3.42;;;8.90;99.90;;;;;;5051238;28;20032;-89
2021/10/28 01:21:03;;;;;;;3.40;2.38;;;8.80;99.90;;;;;;5034519;28;20235;-89
2021/10/28 01:23:28;;;;;;;4.90;3.08;;;8.80;99.90;;;;;;5034182;28;20033;-85
2021/10/28 01:25:58;;;;;;;5.20;3.65;;;8.80;99.90;;;;;;5033444;28;20078;-85
2021/10/28 01:28:26;;;;;;;4.47;2.97;;;8.90;99.90;;;;;;5050582;28;20094;-88
2021/10/28 01:30:55;;;;;;;5.60;3.33;;;8.80;99.90;;;;;;5034065;28;20295;-84
2021/10/28 01:33:22;;;;;;;5.85;3.67;;;8.90;99.90;;;;;;5045612;28;20109;-83
2021/10/28 01:35:49;;;;;;;7.65;3.47;;;8.80;99.90;;;;;;5023091;28;20066;-84
2021/10/28 01:38:17;;;;;;;7.25;3.90;;;8.80;99.90;;;;;;5033943;28;20032;-83
2021/10/28 01:40:56;;;;;;;9.13;3.70;;;8.70;99.90;;;;;;5041705;28;20064;-84
2021/10/28 01:43:23;;;;;;;5.20;3.42;;;8.70;99.90;;;;;;5030615;28;20128;-84
2021/10/28 01:45:50;;;;;;;7.20;4.07;;;8.70;99.90;;;;;;5047467;23;20048;-85
2021/10/28 01:48:19;;;;;;;8.23;4.65;;;8.60;99.90;;;;;;5001174;28;20520;-94
2021/10/28 01:50:45;;;;;;;5.75;4.05;;;8.60;99.90;;;;;;4972684;28;20046;-92
2021/10/28 01:53:12;;;;;;;6.57;4.50;;;8.60;99.90;;;;;;4983196;28;20638;-86
2021/10/28 01:55:38;;;;;;;10.88;4.50;;;8.60;99.90;;;;;;4975398;28;20038;-92
2021/10/28 01:58:06;;;;;;;5.28;3.75;;;8.60;99.90;;;;;;5009027;28;20034;-91
2021/10/28 02:00:33;;;;;;;7.57;5.05;;;8.60;99.90;;;;;;4975620;28;20049;-89
2021/10/28 02:02:58;;;;;;;8.70;5.32;;;8.60;99.90;;;;;;4991931;28;20042;-93
2021/10/28 02:05:26;;;;;;;10.02;4.80;;;8.60;99.90;;;;;;4991428;28;20034;-90
2021/10/28 02:07:57;;;;;;;7.95;4.57;;;8.60;99.90;;;;;;4975342;28;20033;-89
2021/10/28 02:10:23;;;;;;;7.60;4.65;;;8.50;99.90;;;;;;4975789;28;20097;-86
2021/10/28 02:12:49;;;;;;;9.55;4.97;;;8.50;99.90;;;;;;4991652;28;20042;-91
2021/10/28 02:15:18;;;;;;;7.63;4.75;;;8.50;99.90;;;;;;4974888;28;20035;-91
2021/10/28 02:17:58;;;;;;;7.05;4.72;;;8.50;99.90;;;;;;4990808;28;20034;-90
2021/10/28 02:20:23;;;;;;;8.98;4.90;;;8.50;99.90;;;;;;4975326;28;20037;-91
2021/10/28 02:22:49;;;;;;;7.15;4.50;;;8.50;99.90;;;;;;4991276;28;20173;-90
2021/10/28 02:25:17;;;;;;;11.57;5.35;;;8.50;99.90;;;;;;4990920;28;20042;-92
2021/10/28 02:27:57;;;;;;;10.70;4.88;;;8.50;99.90;;;;;;4975520;28;20034;-89
2021/10/28 02:30:23;;;;;;;7.90;4.97;;;8.50;99.90;;;;;;4991062;28;20038;-90
2021/10/28 02:32:50;;;;;;;6.80;5.07;;;8.40;99.90;;;;;;4974795;28;20080;-91
2021/10/28 02:35:16;;;;;;;8.70;5.28;;;8.40;99.90;;;;;;5007172;28;20041;-87
2021/10/28 02:37:45;;;;;;;7.55;4.85;;;8.40;99.90;;;;;;4974710;28;20073;-87
2021/10/28 02:40:11;;;;;;;7.80;4.68;;;8.40;99.90;;;;;;4974717;28;20038;-91
2021/10/28 02:42:38;;;;;;;9.18;5.32;;;8.40;99.90;;;;;;4991054;28;20459;-88
2021/10/28 02:45:24;;;;;;;7.15;4.93;;;8.40;99.90;;;;;;4989857;28;20101;-89
2021/10/28 02:47:51;;;;;;;8.73;4.78;;;8.40;99.90;;;;;;4950529;29;20051;-90
2021/10/28 02:50:17;;;;;;;8.25;5.20;;;8.40;99.90;;;;;;4951100;29;20119;-91
2021/10/28 02:52:44;;;;;;;7.65;5.03;;;8.30;99.90;;;;;;4950716;29;20059;-91
2021/10/28 02:55:10;;;;;;;7.75;4.60;;;8.40;99.90;;;;;;4950253;28;20063;-91
2021/10/28 02:57:39;;;;;;;7.93;5.18;;;8.30;99.90;;;;;;4950799;29;20035;-89
2021/10/28 03:00:09;;;;;;;9.30;4.88;;;8.40;99.90;;;;;;4950561;29;20043;-92
2021/10/28 03:02:35;;;;;;;9.02;4.30;;;8.40;99.90;;;;;;4950808;29;20085;-91
2021/10/28 03:05:01;;;;;;;7.50;4.63;;;8.30;99.90;;;;;;4956078;28;20717;-92
2021/10/28 03:07:28;;;;;;;7.15;4.45;;;8.30;99.90;;;;;;4969741;28;20038;-87
2021/10/28 03:09:53;;;;;;;7.68;4.57;;;8.30;99.90;;;;;;4949640;29;20066;-85
2021/10/28 03:12:19;;;;;;;9.75;5.50;;;8.30;99.90;;;;;;4963401;29;20040;-88
2021/10/28 03:14:55;;;;;;;9.60;5.88;;;8.40;99.90;;;;;;4981747;28;20041;-85
2021/10/28 03:25:42;;;;;;;11.63;5.78;;;8.30;99.90;;;;;;4963781;28;20065;-88
2021/10/28 03:28:14;;;;;;;9.18;6.03;;;8.30;99.90;;;;;;4969176;28;20030;-91
2021/10/28 03:30:40;;;;;;;11.20;6.25;;;8.30;99.90;;;;;;4970667;28;20102;-90
2021/10/28 03:33:07;;;;;;;8.55;5.32;;;8.20;99.90;;;;;;4987740;28;20022;-91
2021/10/28 03:35:33;;;;;;;7.93;5.18;;;8.20;99.90;;;;;;4969925;28;20039;-91
2021/10/28 03:38:08;;;;;;;10.77;5.90;;;8.20;99.90;;;;;;4969797;28;20030;-88
2021/10/28 04:21:40;;;;;;;9.35;6.15;;;7.90;99.90;;;;;;5042534;28;20052;-82
2021/10/28 04:28:53;;;;;;;10.80;6.22;;;7.90;99.90;;;;;;5039455;28;20053;-82
2021/10/28 04:30:04;;;;;;;10.02;5.22;;;7.90;99.90;;;;;;5046778;28;20044;-82
2021/10/28 04:32:30;;;;;;;10.20;6.18;;;7.90;99.90;;;;;;5046959;28;20025;-82
2021/10/28 04:34:55;;;;;;;10.70;5.65;;;7.90;99.90;;;;;;5029931;28;20078;-82
2021/10/28 04:37:21;;;;;;;12.90;5.22;;;7.90;99.90;;;;;;5046480;28;20033;-82
2021/10/28 04:39:47;;;;;;;11.25;6.20;;;7.80;99.90;;;;;;5042423;28;20068;-82
2021/10/28 04:42:13;;;;;;;10.57;6.63;;;7.80;99.90;;;;;;5034264;28;20058;-82
2021/10/28 04:44:40;;;;;;;12.68;6.55;;;7.80;99.90;;;;;;5050279;28;20204;-82
2021/10/28 04:47:07;;;;;;;11.73;6.38;;;7.80;99.90;;;;;;5033695;28;20040;-82
2021/10/28 04:49:32;;;;;;;12.23;6.78;;;7.80;99.90;;;;;;5033859;28;20033;-82
2021/10/28 04:51:58;;;;;;;11.90;7.15;;;7.80;99.90;;;;;;5034175;28;20044;-82
2021/10/28 04:54:24;;;;;;;10.27;5.93;;;7.70;99.90;;;;;;5032459;28;20087;-82
2021/10/28 04:56:49;;;;;;;9.00;5.70;;;7.70;99.90;;;;;;5030794;28;20036;-82
2021/10/28 04:59:15;;;;;;;12.43;6.93;;;7.70;99.90;;;;;;5036865;28;20029;-83
2021/10/28 05:01:41;;;;;;;12.45;6.13;;;7.70;99.90;;;;;;5014144;28;20034;-86
2021/10/28 05:04:06;;;;;;;11.80;7.00;;;7.70;99.90;;;;;;5039163;28;20025;-83
2021/10/28 05:06:32;;;;;;;11.38;6.47;;;7.70;99.90;;;;;;5033111;28;20037;-83
2021/10/28 05:08:58;;;;;;;10.18;5.78;;;7.70;99.90;;;;;;5040417;28;20030;-82
2021/10/28 05:11:24;;;;;;;13.13;6.80;;;7.70;99.90;;;;;;5014144;28;20061;-83
2021/10/28 05:13:52;;;;;;;11.23;6.47;;;7.70;99.90;;;;;;5046805;28;20033;-83
2021/10/28 05:16:18;;;;;;;12.13;6.97;;;7.70;99.90;;;;;;5029737;28;20034;-82
2021/10/28 05:18:45;;;;;;;12.27;6.07;;;7.70;99.90;;;;;;5030269;28;20049;-83
2021/10/28 05:21:12;;;;;;;11.20;6.00;;;7.70;99.90;;;;;;5030175;28;20026;-82
2021/10/28 05:23:38;;;;;;;10.50;6.25;;;7.70;99.90;;;;;;5013948;28;20033;-82
2021/10/28 05:26:05;;;;;;;9.25;5.65;;;7.70;99.90;;;;;;5030051;28;20041;-83
2021/10/28 05:28:32;;;;;;;9.98;5.22;;;7.70;99.90;;;;;;5030221;28;20076;-83
2021/10/28 05:30:57;;;;;;;10.73;6.22;;;7.70;99.90;;;;;;5046916;28;20031;-84
2021/10/28 05:33:23;;;;;;;13.90;6.90;;;7.70;99.90;;;;;;5030305;28;20476;-82
2021/10/28 05:35:49;;;;;;;11.70;5.88;;;7.60;99.90;;;;;;5014574;28;20120;-82
2021/10/28 05:38:15;;;;;;;10.48;5.95;;;7.70;99.90;;;;;;5030025;28;20029;-83
2021/10/28 05:40:40;;;;;;;11.32;5.85;;;7.60;99.90;;;;;;5038318;28;20086;-83
2021/10/28 05:43:08;;;;;;;10.15;5.10;;;7.60;99.90;;;;;;5033616;28;20035;-82
2021/10/28 05:45:34;;;;;;;10.82;5.70;;;7.60;99.90;;;;;;5032814;28;20036;-82
2021/10/28 05:48:00;;;;;;;10.48;5.47;;;7.60;99.90;;;;;;5033108;28;20120;-83
2021/10/28 05:50:26;;;;;;;12.45;6.97;;;7.60;99.90;;;;;;5033219;28;20072;-82
2021/10/28 05:52:54;;;;;;;14.25;6.22;;;7.60;99.90;;;;;;5032013;28;20082;-82
2021/10/28 05:55:21;;;;;;;12.20;6.68;;;7.60;99.90;;;;;;5049662;28;20036;-82
2021/10/28 05:57:47;;;;;;;10.73;6.72;;;7.60;99.90;;;;;;5032930;28;20037;-82
2021/10/28 06:00:14;;;;;;;9.35;5.53;;;7.50;99.90;;;;;;5033236;28;20037;-82
2021/10/28 06:02:39;;;;;;;11.98;6.32;;;7.40;99.90;;;;;;5032986;28;20033;-83
2021/10/28 06:05:06;;;;;;;10.57;6.03;;;7.40;99.90;;;;;;5033044;28;20087;-83
2021/10/28 06:07:32;;;;;;;10.88;5.47;;;7.40;99.90;;;;;;5032169;28;20496;-82
2021/10/28 06:09:58;;;;;;;10.95;5.75;;;7.40;99.90;;;;;;5032914;28;20036;-82
2021/10/28 06:12:25;;;;;;;11.43;6.40;;;7.40;99.90;;;;;;5032694;28;20036;-82
2021/10/28 06:14:51;;;;;;;10.30;5.75;;;7.30;99.90;;;;;;5049564;28;20028;-82
2021/10/28 06:17:18;;;;;;;11.88;6.40;;;7.30;99.90;;;;;;5029310;28;20049;-83
2021/10/28 06:19:44;;;;;;;11.60;6.53;;;7.30;99.90;;;;;;5049356;28;20036;-82
2021/10/28 06:22:10;;;;;;;11.00;6.43;;;7.20;99.90;;;;;;5032565;28;20029;-82
2021/10/28 06:24:36;;;;;;;9.80;5.63;;;7.20;99.90;;;;;;5067112;28;20531;-82
2021/10/28 06:27:01;;;;;;;10.75;6.00;;;7.20;99.90;;;;;;5032494;28;20032;-82
2021/10/28 06:29:27;;;;;;;10.68;5.80;;;7.30;99.90;;;;;;5032681;28;20029;-82
2021/10/28 06:31:53;;;;;;;11.25;6.30;;;7.20;99.90;;;;;;5032536;28;20033;-82
2021/10/28 06:34:20;;;;;;;10.68;5.53;;;7.10;99.90;;;;;;5049259;28;20093;-82
2021/10/28 06:36:47;;;;;;;12.35;6.20;;;7.10;99.90;;;;;;5066206;28;20040;-82
2021/10/28 06:39:13;;;;;;;13.25;6.93;;;7.10;99.90;;;;;;5031933;28;20040;-81
2021/10/28 06:41:40;;;;;;;11.35;6.43;;;7.10;99.90;;;;;;5028220;28;20500;-82
2021/10/28 06:44:05;;;;;;;11.90;5.95;;;7.10;99.90;;;;;;5012228;28;20044;-83
2021/10/28 06:46:31;;;;;;;14.23;6.20;;;7.10;99.90;;;;;;5027994;28;20037;-82
2021/10/28 06:48:57;;;;;;;13.65;6.45;;;7.10;99.90;;;;;;5011790;28;20036;-82
2021/10/28 06:51:25;;;;;;;10.07;5.95;;;7.10;99.90;;;;;;5028135;28;20109;-82
2021/10/28 06:54:06;;;;;;;12.15;5.95;;;7.10;99.90;;;;;;5061728;28;20043;-81
2021/10/28 07:04:43;;;;;;;13.77;6.90;;;7.10;99.90;;;;;;5047447;28;20036;-83
2021/10/28 07:07:09;;;;;;;14.35;6.82;;;7.10;99.90;;;;;;5047504;28;20028;-83
2021/10/28 07:09:41;;;;;;;14.73;6.95;;;7.10;99.90;;;;;;5031014;28;20025;-83
2021/10/28 07:12:25;;;;;;;16.67;8.20;;;7.10;99.90;;;;;;5030929;28;20037;-83
2021/10/28 07:14:54;;;;;;;17.40;7.18;;;7.10;99.90;;;;;;5031169;28;20029;-83
2021/10/28 07:17:31;;;;;;;12.43;6.30;;;7.10;99.90;;;;;;5030670;28;20064;-82
2021/10/28 07:22:56;;;;;;;13.52;7.13;;;7.10;99.90;;;;;;5047505;28;20029;-82
2021/10/28 07:27:58;;;;;;;12.63;6.47;;;7.20;99.90;;;;;;5047169;28;20040;-82
2021/10/28 08:00:07;;;;;;;24.00;12.40;;;8.20;99.90;;;;;;5043485;28;20029;-82
2021/10/28 08:05:41;;;;;;;23.85;12.68;;;8.50;99.90;;;;;;5044836;28;20046;-82
2021/10/28 08:14:10;;;;;;;26.50;13.57;;;8.90;99.90;;;;;;5043475;28;20591;-82
2021/10/28 08:19:27;;;;;;;28.27;14.77;;;9.00;99.90;;;;;;5047515;28;20110;-83
2021/10/28 08:22:08;;;;;;;23.67;13.95;;;9.10;99.90;;;;;;5014644;28;20026;-82
2021/10/28 08:30:04;;;;;;;27.85;13.80;;;9.40;99.90;;;;;;5048773;28;20022;-85
2021/10/28 08:32:29;;;;;;;27.95;14.43;;;9.50;99.90;;;;;;5030977;28;20064;-83
2021/10/28 08:34:57;;;;;;;29.65;15.27;;;9.50;99.90;;;;;;5030862;28;20029;-82
2021/10/28 08:37:30;;;;;;;27.83;14.23;;;9.60;99.90;;;;;;5014329;28;20034;-83
2021/10/28 08:39:55;;;;;;;27.63;14.85;;;9.60;99.90;;;;;;5016638;28;20121;-83
2021/10/28 08:42:23;;;;;;;30.92;14.68;;;9.80;99.90;;;;;;5034209;28;20079;-84
2021/10/28 08:44:51;;;;;;;28.30;14.30;;;9.70;99.90;;;;;;5033922;28;20037;-83
2021/10/28 08:47:18;;;;;;;28.05;13.80;;;9.80;99.90;;;;;;5033498;28;20040;-83
2021/10/28 08:49:49;;;;;;;29.77;15.10;;;9.80;99.90;;;;;;5033837;28;20096;-83
2021/10/28 09:19:34;;;;;;;29.27;14.73;;;10.10;99.90;;;;;;5029933;28;20033;-83
2021/10/28 09:28:18;;;;;;;29.30;15.23;;;11.20;99.90;;;;;;5046368;28;20026;-82
2021/10/28 09:30:49;;;;;;;26.23;14.23;;;11.20;99.90;;;;;;5029746;28;20030;-83
2021/10/28 09:33:28;;;;;;;30.33;15.27;;;11.40;99.90;;;;;;5029745;28;20026;-83
2021/10/28 09:43:34;;;;;;;31.42;14.93;;;11.60;99.90;;;;;;5029699;28;20025;-84
2021/10/28 09:50:18;;;;;;;22.88;13.05;;;12.10;99.90;;;;;;5005372;28;20041;-85
2021/10/28 09:53:05;;;;;;;27.77;15.43;;;12.30;99.90;;;;;;4995843;28;20038;-83
2021/10/28 09:58:29;;;;;;;23.98;13.40;;;12.40;99.90;;;;;;5024876;28;20030;-83
2021/10/28 10:00:55;;;;;;;26.52;14.05;;;12.50;99.90;;;;;;5008359;28;20021;-82
2021/10/28 10:03:25;;;;;;;23.88;13.20;;;12.70;99.90;;;;;;5008543;28;20033;-84
2021/10/28 10:05:59;;;;;;;25.17;15.38;;;12.70;99.90;;;;;;5008189;28;20054;-82
2021/10/28 10:08:29;;;;;;;26.30;14.90;;;12.90;99.90;;;;;;5008424;28;20680;-82
2021/10/28 10:10:57;;;;;;;26.63;14.35;;;13.00;99.90;;;;;;5008510;28;20041;-84
2021/10/28 10:13:27;;;;;;;25.85;15.00;;;13.20;99.90;;;;;;5008397;28;20030;-82
2021/10/28 10:15:56;;;;;;;23.95;13.55;;;13.10;99.90;;;;;;5008030;28;20112;-84
2021/10/28 10:18:24;;;;;;;25.07;14.47;;;13.20;99.90;;;;;;5007998;28;20065;-83
2021/10/28 10:29:27;;;;;;;20.73;11.20;;;13.50;99.90;;;;;;5048591;28;20564;-83
2021/10/28 11:05:17;;;;;;;18.27;11.52;;;14.60;99.90;;;;;;5047820;28;20051;-84
2021/10/28 12:01:37;;;;;;;15.30;10.32;;;15.20;99.90;;;;;;5047272;28;20059;-84
2021/10/28 12:23:46;;;;;;;14.77;9.77;;;15.60;99.90;;;;;;4983359;28;20037;-83
2021/10/28 12:43:51;;;;;;;11.82;7.55;;;15.80;99.90;;;;;;5043315;28;20136;-83
2021/10/28 12:46:55;;;;;;;11.85;8.63;;;15.80;99.90;;;;;;5026518;28;20043;-83
2021/10/28 12:49:48;;;;;;;11.68;7.05;;;15.90;99.90;;;;;;5027681;28;20053;-84
2021/10/28 12:54:49;;;;;;;10.18;5.10;;;16.10;99.90;;;;;;5030907;28;20033;-83
2021/10/28 13:03:23;;;;;;;11.50;6.18;;;15.90;99.90;;;;;;5061500;28;20053;-83
2021/10/28 13:36:17;;;;;;;6.15;4.47;;;16.10;99.90;;;;;;5048747;28;20025;-81
2021/10/28 13:55:03;;;;;;;8.90;4.88;;;16.10;99.90;;;;;;5048881;28;20086;-82
2021/10/28 13:58:04;;;;;;;8.38;5.00;;;16.20;99.90;;;;;;5048621;28;20438;-82
2021/10/28 14:18:16;;;;;;;7.20;4.53;;;16.20;99.90;;;;;;5044381;28;20608;-80
2021/10/28 14:29:11;;;;;;;6.85;3.72;;;16.00;99.90;;;;;;5048182;28;20025;-80
2021/10/28 15:03:29;;;;;;;7.25;3.58;;;15.30;99.90;;;;;;5028218;28;20067;-84
2021/10/28 15:28:04;;;;;;;7.90;3.60;;;14.80;99.90;;;;;;5057679;28;20033;-83
2021/10/28 15:30:58;;;;;;;6.43;4.18;;;14.80;99.90;;;;;;5021429;28;20055;-83
2021/10/28 15:35:54;;;;;;;7.45;4.57;;;14.60;99.90;;;;;;5030188;28;20367;-84
2021/10/28 15:50:22;;;;;;;6.50;3.60;;;14.30;99.90;;;;;;5038420;28;20040;-83
2021/10/28 16:00:54;;;;;;;6.28;3.30;;;14.10;99.90;;;;;;5033433;28;20033;-85
2021/10/28 16:22:43;;;;;;;5.57;3.63;;;13.50;99.90;;;;;;5047985;28;20033;-84
2021/10/28 16:25:09;;;;;;;5.75;4.15;;;13.50;99.90;;;;;;5019693;28;20064;-84
2021/10/28 16:27:36;;;;;;;7.30;4.57;;;13.40;99.90;;;;;;5031266;28;20037;-85
2021/10/28 16:30:04;;;;;;;7.25;4.63;;;13.40;99.90;;;;;;5024948;28;20033;-84
2021/10/28 16:32:31;;;;;;;6.95;4.68;;;13.30;99.90;;;;;;5042849;28;20029;-84
2021/10/28 16:34:57;;;;;;;5.97;3.97;;;13.30;99.90;;;;;;5036604;28;20115;-84
2021/10/28 16:37:29;;;;;;;6.50;4.00;;;13.30;99.90;;;;;;5033084;28;20083;-83
2021/10/28 16:39:54;;;;;;;8.57;4.75;;;13.20;99.90;;;;;;5043359;28;20033;-85
2021/10/28 16:42:21;;;;;;;8.40;5.35;;;13.20;99.90;;;;;;5036693;28;20715;-84
2021/10/28 16:44:47;;;;;;;7.47;5.30;;;13.20;99.90;;;;;;5032904;28;20397;-83
2021/10/28 16:47:14;;;;;;;10.35;6.32;;;13.10;99.90;;;;;;5066270;28;20048;-83
2021/10/28 16:49:39;;;;;;;8.13;5.95;;;13.10;99.90;;;;;;5039667;28;20040;-83
2021/10/28 16:52:07;;;;;;;8.25;5.03;;;13.10;99.90;;;;;;5025258;28;20033;-83
2021/10/28 16:54:33;;;;;;;6.95;5.22;;;13.00;99.90;;;;;;5038289;28;20029;-84
2021/10/28 16:57:01;;;;;;;10.02;5.80;;;12.90;99.90;;;;;;5038825;28;20029;-84
2021/10/28 16:59:26;;;;;;;9.68;5.93;;;12.90;99.90;;;;;;5034592;28;20031;-84
2021/10/28 17:01:53;;;;;;;9.95;5.75;;;12.90;99.90;;;;;;5027574;28;20112;-85
2021/10/28 17:04:19;;;;;;;8.38;6.45;;;12.90;99.90;;;;;;5014979;28;20040;-84
2021/10/28 17:06:46;;;;;;;13.77;5.90;;;12.90;99.90;;;;;;5024964;28;20041;-84
2021/10/28 17:09:12;;;;;;;6.93;4.93;;;12.80;99.90;;;;;;5031148;28;20040;-84
2021/10/28 17:11:39;;;;;;;10.68;6.43;;;12.80;99.90;;;;;;5049331;28;20041;-84
2021/10/28 17:14:06;;;;;;;7.72;5.70;;;12.70;99.90;;;;;;5034792;28;20052;-84
2021/10/28 17:16:35;;;;;;;9.82;5.57;;;12.70;99.90;;;;;;5051317;28;20083;-83
2021/10/28 17:19:01;;;;;;;8.30;5.75;;;12.70;99.90;;;;;;5067538;28;20152;-83
2021/10/28 17:21:27;;;;;;;12.40;6.68;;;12.70;99.90;;;;;;5033503;28;20044;-83
2021/10/28 17:24:00;;;;;;;10.68;6.47;;;12.60;99.90;;;;;;5034302;28;20025;-83
2021/10/28 17:26:27;;;;;;;9.52;5.45;;;12.60;99.90;;;;;;5038222;28;20052;-84
2021/10/28 17:28:58;;;;;;;11.52;5.82;;;12.60;99.90;;;;;;5043862;28;20548;-82
2021/10/28 17:31:25;;;;;;;8.30;5.38;;;12.50;99.90;;;;;;5047662;28;20033;-86
2021/10/28 17:33:51;;;;;;;9.35;6.22;;;12.50;99.90;;;;;;5067150;28;20029;-84
2021/10/28 17:36:16;;;;;;;10.43;5.93;;;12.50;99.90;;;;;;5023562;28;20100;-84
2021/10/28 17:38:42;;;;;;;11.57;6.50;;;12.40;99.90;;;;;;5026619;28;20057;-85
2021/10/28 17:41:08;;;;;;;10.07;5.18;;;12.40;99.90;;;;;;5029447;28;20045;-84
2021/10/28 17:43:35;;;;;;;8.52;4.95;;;12.40;99.90;;;;;;5047223;28;20041;-85
2021/10/28 17:46:03;;;;;;;9.38;6.30;;;12.30;99.90;;;;;;5025248;28;20049;-84
2021/10/28 17:48:29;;;;;;;10.18;5.88;;;12.30;99.90;;;;;;5041890;28;20040;-86
2021/10/28 17:50:55;;;;;;;9.27;6.30;;;12.30;99.90;;;;;;5023780;28;20026;-85
2021/10/28 17:53:21;;;;;;;9.00;6.75;;;12.20;99.90;;;;;;5028824;28;20036;-85
2021/10/28 17:55:47;;;;;;;12.32;7.53;;;12.20;99.90;;;;;;5022681;28;20032;-86
2021/10/28 17:58:16;;;;;;;10.02;6.68;;;12.20;99.90;;;;;;5026626;28;20036;-86
2021/10/28 18:00:42;;;;;;;8.50;6.20;;;12.20;99.90;;;;;;5024924;28;20057;-87
2021/10/28 18:03:09;;;;;;;12.80;7.03;;;12.20;99.90;;;;;;5027777;28;20021;-86
2021/10/28 18:05:36;;;;;;;10.20;7.47;;;12.10;99.90;;;;;;5032907;28;20037;-83
2021/10/28 18:08:05;;;;;;;10.30;7.03;;;12.10;99.90;;;;;;5027046;28;20037;-83
2021/10/28 18:10:30;;;;;;;11.32;7.65;;;12.10;99.90;;;;;;5026031;28;20087;-84
2021/10/28 18:12:56;;;;;;;10.30;7.45;;;12.00;99.90;;;;;;5040222;28;20037;-85
2021/10/28 18:15:23;;;;;;;13.13;8.23;;;12.10;99.90;;;;;;5022996;28;20087;-86
2021/10/28 18:17:54;;;;;;;13.30;7.45;;;12.10;99.90;;;;;;5056075;28;20029;-85
2021/10/28 18:20:20;;;;;;;9.88;6.88;;;12.00;99.90;;;;;;5028642;28;20025;-85
2021/10/28 18:22:48;;;;;;;9.05;6.60;;;11.90;99.90;;;;;;5056169;28;20069;-85
2021/10/28 18:25:14;;;;;;;12.20;7.72;;;11.90;99.90;;;;;;5033806;28;20045;-85
2021/10/28 18:27:41;;;;;;;11.18;7.40;;;11.90;99.90;;;;;;5016006;28;20026;-85
2021/10/28 18:30:11;;;;;;;10.13;6.97;;;11.90;99.90;;;;;;5052138;28;20067;-87
2021/10/28 18:32:40;;;;;;;10.68;6.47;;;11.90;99.90;;;;;;5016018;28;20029;-85
2021/10/28 18:35:06;;;;;;;8.50;6.85;;;11.80;99.90;;;;;;5017731;28;20036;-84
2021/10/28 18:37:38;;;;;;;11.48;6.95;;;11.80;99.90;;;;;;5021517;28;20033;-86
2021/10/28 18:40:06;;;;;;;16.63;7.63;;;11.80;99.90;;;;;;5029824;28;20041;-88
2021/10/28 18:42:31;;;;;;;8.40;6.40;;;11.80;99.90;;;;;;5019518;28;20045;-88
2021/10/28 18:44:57;;;;;;;10.77;7.72;;;11.70;99.90;;;;;;5029712;28;20172;-84
2021/10/28 18:47:24;;;;;;;8.18;5.85;;;11.70;99.90;;;;;;5037306;28;20512;-85
2021/10/28 18:49:51;;;;;;;12.00;6.18;;;11.70;99.90;;;;;;5048967;28;20028;-85
2021/10/28 18:52:18;;;;;;;8.80;6.53;;;11.70;99.90;;;;;;5032045;28;20162;-85
2021/10/28 18:54:45;;;;;;;11.57;7.32;;;11.60;99.90;;;;;;5046610;28;20477;-84
2021/10/28 18:57:14;;;;;;;11.23;6.97;;;11.60;99.90;;;;;;5028979;28;20036;-89
2021/10/28 18:59:43;;;;;;;10.30;7.38;;;11.60;99.90;;;;;;5047637;28;20040;-85
2021/10/28 19:02:09;;;;;;;9.80;7.35;;;11.50;99.90;;;;;;5048763;28;20025;-83
2021/10/28 19:04:36;;;;;;;9.52;7.15;;;11.40;99.90;;;;;;5036416;28;20489;-85
2021/10/28 19:07:02;;;;;;;10.52;6.75;;;11.50;99.90;;;;;;5045383;28;20040;-86
2021/10/28 19:09:28;;;;;;;10.40;6.63;;;11.50;99.90;;;;;;5047780;28;20044;-85
2021/10/28 19:11:54;;;;;;;13.45;6.65;;;11.40;99.90;;;;;;5012844;28;20120;-83
2021/10/28 19:14:19;;;;;;;9.52;6.40;;;11.40;99.90;;;;;;5045624;28;20033;-85
2021/10/28 19:16:46;;;;;;;9.63;6.57;;;11.40;99.90;;;;;;5025821;28;20032;-84
2021/10/28 19:19:12;;;;;;;10.77;6.95;;;11.30;99.90;;;;;;5016791;28;20029;-85
2021/10/28 19:21:38;;;;;;;14.88;7.38;;;11.40;99.90;;;;;;5047416;28;20032;-84
2021/10/28 19:24:04;;;;;;;9.93;6.78;;;11.30;99.90;;;;;;5032329;28;20029;-85
2021/10/28 19:26:31;;;;;;;10.77;7.03;;;11.20;99.90;;;;;;5036075;28;20044;-84
2021/10/28 19:28:58;;;;;;;9.23;6.95;;;11.20;99.90;;;;;;5053735;28;20025;-83
2021/10/28 19:31:27;;;;;;;9.23;6.32;;;11.20;99.90;;;;;;5034271;28;20051;-84
2021/10/28 19:33:55;;;;;;;11.07;6.85;;;11.20;99.90;;;;;;5030216;28;20025;-84
2021/10/28 19:36:38;;;;;;;10.32;5.47;;;11.20;99.90;;;;;;5019484;28;20036;-84
2021/10/28 19:39:26;;;;;;;8.77;6.00;;;11.10;99.90;;;;;;5041990;28;20062;-84
2021/10/28 19:42:29;;;;;;;10.68;6.65;;;11.10;99.90;;;;;;5012323;28;20126;-84
2021/10/28 19:47:22;;;;;;;9.52;6.20;;;11.00;99.90;;;;;;5065062;28;20052;-84
2021/10/28 19:49:47;;;;;;;11.18;6.22;;;11.00;99.90;;;;;;5028225;28;20040;-84
2021/10/28 19:52:15;;;;;;;9.13;6.40;;;10.90;99.90;;;;;;5047788;28;20036;-84
2021/10/28 19:54:44;;;;;;;9.93;7.38;;;10.90;99.90;;;;;;5064819;28;20051;-84
2021/10/28 19:57:20;;;;;;;11.07;7.63;;;10.90;99.90;;;;;;5028090;28;20033;-84
2021/10/28 20:00:35;;;;;;;11.07;7.35;;;10.90;99.90;;;;;;5031636;28;20856;-84
2021/10/28 20:21:29;;;;;;;10.90;6.82;;;10.70;99.90;;;;;;5069727;28;20542;-85
2021/10/28 20:23:55;;;;;;;9.13;6.43;;;10.70;99.90;;;;;;5032031;28;20097;-84
2021/10/28 20:26:22;;;;;;;11.48;6.70;;;10.60;99.90;;;;;;5040603;28;20049;-83
2021/10/28 20:28:49;;;;;;;11.43;7.75;;;10.60;99.90;;;;;;5032462;28;20100;-85
2021/10/28 20:31:20;;;;;;;13.77;8.45;;;10.60;99.90;;;;;;5029777;28;20037;-85
2021/10/28 20:34:35;;;;;;;16.52;8.27;;;10.50;99.90;;;;;;5040715;28;20057;-85
2021/10/28 20:37:05;;;;;;;12.35;7.03;;;10.50;99.90;;;;;;5045955;28;20055;-86
2021/10/28 20:39:29;;;;;;;12.23;8.10;;;10.50;99.90;;;;;;5038942;28;20048;-86
2021/10/28 20:41:56;;;;;;;18.45;9.50;;;10.50;99.90;;;;;;5045829;28;20033;-86
2021/10/28 20:44:21;;;;;;;11.65;8.70;;;10.40;99.90;;;;;;5048083;28;20037;-84
2021/10/28 20:46:48;;;;;;;14.45;9.05;;;10.40;99.90;;;;;;5032965;28;20506;-85
2021/10/28 20:49:14;;;;;;;12.00;7.63;;;10.40;99.90;;;;;;5042925;28;20033;-87
2021/10/28 20:51:40;;;;;;;15.32;9.35;;;10.30;99.90;;;;;;5026265;28;20091;-85
2021/10/28 20:54:06;;;;;;;10.40;8.25;;;10.30;99.90;;;;;;5027226;28;20568;-84
2021/10/28 20:56:33;;;;;;;13.52;8.38;;;10.30;99.90;;;;;;5041334;28;20367;-85
2021/10/28 20:58:59;;;;;;;12.52;8.70;;;10.20;99.90;;;;;;5042590;28;20581;-85
2021/10/28 21:01:25;;;;;;;14.80;9.38;;;10.20;99.90;;;;;;5022857;28;20033;-84
2021/10/28 21:03:52;;;;;;;12.48;8.77;;;10.20;99.90;;;;;;5024279;28;20017;-85
2021/10/28 21:06:19;;;;;;;12.60;9.50;;;10.20;99.90;;;;;;5027575;28;20044;-85
2021/10/28 21:08:45;;;;;;;16.30;10.50;;;10.20;99.90;;;;;;5039768;28;20028;-86
2021/10/28 21:11:10;;;;;;;15.93;9.95;;;10.10;99.90;;;;;;5025751;28;20079;-85
2021/10/28 21:13:36;;;;;;;13.65;9.38;;;10.10;99.90;;;;;;5037813;28;20025;-84
2021/10/28 21:16:02;;;;;;;16.48;10.43;;;10.10;99.90;;;;;;5023170;28;20474;-88
2021/10/28 21:18:28;;;;;;;17.88;11.75;;;10.10;99.90;;;;;;5041199;28;20034;-83